sensor_id;sensor_type;location;lat;lon;timestamp;P1;durP1;ratioP1;P2;durP2;ratioP2
72864;SDS011;61000;48.120;11.548;2023-02-12T00:00:41;27.20;;;18.08;;
72864;SDS011;61000;48.120;11.548;2023-02-12T00:03:09;31.13;;;18.00;;
72864;SDS011;61000;48.120;11.548;2023-02-12T00:05:37;40.63;;;20.25;;
72864;SDS011;61000;48.120;11.548;2023-02-12T00:08:05;29.73;;;18.85;;
72864;SDS011;61000;48.120;11.548;2023-02-12T00:10:44;30.35;;;17.50;;
72864;SDS011;61000;48.120;11.548;2023-02-12T00:13:11;29.77;;;17.70;;
72864;SDS011;61000;48.120;11.548;2023-02-12T00:15:39;30.17;;;17.55;;
72864;SDS011;61000;48.120;11.548;2023-02-12T00:18:06;28.15;;;16.42;;
72864;SDS011;61000;48.120;11.548;2023-02-12T00:20:33;27.63;;;16.75;;
72864;SDS011;61000;48.120;11.548;2023-02-12T00:23:01;32.53;;;17.98;;
72864;SDS011;61000;48.120;11.548;2023-02-12T00:25:28;30.75;;;16.92;;
72864;SDS011;61000;48.120;11.548;2023-02-12T00:27:55;26.75;;;16.48;;
72864;SDS011;61000;48.120;11.548;2023-02-12T00:30:24;25.55;;;16.50;;
72864;SDS011;61000;48.120;11.548;2023-02-12T00:32:53;26.58;;;17.10;;
72864;SDS011;61000;48.120;11.548;2023-02-12T00:35:20;23.63;;;16.30;;
72864;SDS011;61000;48.120;11.548;2023-02-12T00:37:48;29.05;;;17.23;;
72864;SDS011;61000;48.120;11.548;2023-02-12T00:40:17;27.08;;;17.45;;
72864;SDS011;61000;48.120;11.548;2023-02-12T00:42:43;32.53;;;18.40;;
72864;SDS011;61000;48.120;11.548;2023-02-12T00:45:10;28.80;;;17.85;;
72864;SDS011;61000;48.120;11.548;2023-02-12T00:47:37;29.92;;;17.10;;
72864;SDS011;61000;48.120;11.548;2023-02-12T00:50:04;27.85;;;18.83;;
72864;SDS011;61000;48.120;11.548;2023-02-12T00:52:32;29.77;;;18.02;;
72864;SDS011;61000;48.120;11.548;2023-02-12T00:54:59;27.92;;;19.00;;
72864;SDS011;61000;48.120;11.548;2023-02-12T00:57:27;28.70;;;18.45;;
72864;SDS011;61000;48.120;11.548;2023-02-12T00:59:55;30.33;;;17.75;;
72864;SDS011;61000;48.120;11.548;2023-02-12T01:02:22;31.10;;;18.23;;
72864;SDS011;61000;48.120;11.548;2023-02-12T01:04:49;27.80;;;17.67;;
72864;SDS011;61000;48.120;11.548;2023-02-12T01:07:16;27.10;;;17.77;;
72864;SDS011;61000;48.120;11.548;2023-02-12T01:09:42;29.15;;;17.98;;
72864;SDS011;61000;48.120;11.548;2023-02-12T01:12:09;30.20;;;16.98;;
72864;SDS011;61000;48.120;11.548;2023-02-12T01:14:37;26.92;;;17.20;;
72864;SDS011;61000;48.120;11.548;2023-02-12T01:17:06;26.52;;;17.48;;
72864;SDS011;61000;48.120;11.548;2023-02-12T01:19:34;30.63;;;19.08;;
72864;SDS011;61000;48.120;11.548;2023-02-12T01:22:00;27.20;;;18.45;;
72864;SDS011;61000;48.120;11.548;2023-02-12T01:24:27;32.20;;;17.65;;
72864;SDS011;61000;48.120;11.548;2023-02-12T01:26:57;27.98;;;18.40;;
72864;SDS011;61000;48.120;11.548;2023-02-12T01:29:23;32.75;;;18.25;;
72864;SDS011;61000;48.120;11.548;2023-02-12T01:31:52;30.10;;;17.75;;
72864;SDS011;61000;48.120;11.548;2023-02-12T01:34:18;30.42;;;19.00;;
72864;SDS011;61000;48.120;11.548;2023-02-12T01:36:45;30.80;;;17.45;;
72864;SDS011;61000;48.120;11.548;2023-02-12T01:39:12;27.10;;;17.35;;
72864;SDS011;61000;48.120;11.548;2023-02-12T01:41:40;28.40;;;17.55;;
72864;SDS011;61000;48.120;11.548;2023-02-12T01:44:10;28.05;;;18.23;;
72864;SDS011;61000;48.120;11.548;2023-02-12T01:46:40;30.08;;;17.65;;
72864;SDS011;61000;48.120;11.548;2023-02-12T01:49:09;33.40;;;19.77;;
72864;SDS011;61000;48.120;11.548;2023-02-12T01:51:39;28.63;;;18.30;;
72864;SDS011;61000;48.120;11.548;2023-02-12T01:54:07;28.88;;;17.42;;
72864;SDS011;61000;48.120;11.548;2023-02-12T01:56:36;28.13;;;18.23;;
72864;SDS011;61000;48.120;11.548;2023-02-12T01:59:04;26.73;;;17.02;;
72864;SDS011;61000;48.120;11.548;2023-02-12T02:01:32;27.77;;;17.92;;
72864;SDS011;61000;48.120;11.548;2023-02-12T02:04:00;33.20;;;19.27;;
72864;SDS011;61000;48.120;11.548;2023-02-12T02:06:32;27.08;;;17.13;;
72864;SDS011;61000;48.120;11.548;2023-02-12T02:09:01;27.48;;;18.40;;
72864;SDS011;61000;48.120;11.548;2023-02-12T02:11:30;31.73;;;17.75;;
72864;SDS011;61000;48.120;11.548;2023-02-12T02:14:15;28.50;;;17.33;;
72864;SDS011;61000;48.120;11.548;2023-02-12T02:17:15;27.75;;;18.90;;
72864;SDS011;61000;48.120;11.548;2023-02-12T02:23:09;35.00;;;18.15;;
72864;SDS011;61000;48.120;11.548;2023-02-12T02:26:13;27.90;;;16.98;;
72864;SDS011;61000;48.120;11.548;2023-02-12T02:29:12;28.08;;;16.90;;
72864;SDS011;61000;48.120;11.548;2023-02-12T02:31:53;32.75;;;17.42;;
72864;SDS011;61000;48.120;11.548;2023-02-12T02:34:28;29.60;;;18.13;;
72864;SDS011;61000;48.120;11.548;2023-02-12T02:37:03;24.98;;;16.90;;
72864;SDS011;61000;48.120;11.548;2023-02-12T02:39:38;28.90;;;17.83;;
72864;SDS011;61000;48.120;11.548;2023-02-12T02:42:09;32.00;;;17.23;;
72864;SDS011;61000;48.120;11.548;2023-02-12T02:44:43;27.10;;;17.02;;
72864;SDS011;61000;48.120;11.548;2023-02-12T02:47:16;31.25;;;16.80;;
72864;SDS011;61000;48.120;11.548;2023-02-12T02:49:47;28.23;;;17.60;;
72864;SDS011;61000;48.120;11.548;2023-02-12T02:52:17;29.27;;;16.85;;
72864;SDS011;61000;48.120;11.548;2023-02-12T02:54:51;27.77;;;16.95;;
72864;SDS011;61000;48.120;11.548;2023-02-12T02:57:24;27.35;;;15.88;;
72864;SDS011;61000;48.120;11.548;2023-02-12T02:59:57;23.80;;;15.20;;
72864;SDS011;61000;48.120;11.548;2023-02-12T03:02:31;32.13;;;16.73;;
72864;SDS011;61000;48.120;11.548;2023-02-12T03:05:02;28.20;;;16.40;;
72864;SDS011;61000;48.120;11.548;2023-02-12T03:07:34;29.63;;;16.33;;
72864;SDS011;61000;48.120;11.548;2023-02-12T03:10:05;27.20;;;17.00;;
72864;SDS011;61000;48.120;11.548;2023-02-12T03:12:37;23.13;;;15.35;;
72864;SDS011;61000;48.120;11.548;2023-02-12T03:15:10;26.67;;;15.48;;
72864;SDS011;61000;48.120;11.548;2023-02-12T03:17:44;28.17;;;16.17;;
72864;SDS011;61000;48.120;11.548;2023-02-12T03:20:14;27.58;;;16.52;;
72864;SDS011;61000;48.120;11.548;2023-02-12T03:22:45;30.48;;;16.90;;
72864;SDS011;61000;48.120;11.548;2023-02-12T03:25:15;27.75;;;16.58;;
72864;SDS011;61000;48.120;11.548;2023-02-12T03:27:46;26.67;;;17.17;;
72864;SDS011;61000;48.120;11.548;2023-02-12T03:30:17;27.70;;;16.45;;
72864;SDS011;61000;48.120;11.548;2023-02-12T03:32:49;29.15;;;16.58;;
72864;SDS011;61000;48.120;11.548;2023-02-12T03:35:24;26.77;;;15.70;;
72864;SDS011;61000;48.120;11.548;2023-02-12T03:37:59;26.63;;;17.10;;
72864;SDS011;61000;48.120;11.548;2023-02-12T03:40:30;26.05;;;16.77;;
72864;SDS011;61000;48.120;11.548;2023-02-12T03:43:01;29.38;;;16.45;;
72864;SDS011;61000;48.120;11.548;2023-02-12T03:45:37;32.60;;;16.85;;
72864;SDS011;61000;48.120;11.548;2023-02-12T03:48:11;27.23;;;17.40;;
72864;SDS011;61000;48.120;11.548;2023-02-12T03:50:46;28.77;;;16.63;;
72864;SDS011;61000;48.120;11.548;2023-02-12T03:53:17;30.48;;;18.27;;
72864;SDS011;61000;48.120;11.548;2023-02-12T03:55:44;29.15;;;17.35;;
72864;SDS011;61000;48.120;11.548;2023-02-12T03:58:18;39.30;;;19.55;;
72864;SDS011;61000;48.120;11.548;2023-02-12T04:00:48;28.73;;;19.17;;
72864;SDS011;61000;48.120;11.548;2023-02-12T04:03:17;28.88;;;17.63;;
72864;SDS011;61000;48.120;11.548;2023-02-12T04:05:44;30.58;;;16.58;;
72864;SDS011;61000;48.120;11.548;2023-02-12T04:08:11;30.65;;;17.65;;
72864;SDS011;61000;48.120;11.548;2023-02-12T04:10:41;30.25;;;17.42;;
72864;SDS011;61000;48.120;11.548;2023-02-12T04:13:18;32.80;;;18.67;;
72864;SDS011;61000;48.120;11.548;2023-02-12T04:15:56;30.05;;;17.48;;
72864;SDS011;61000;48.120;11.548;2023-02-12T04:18:35;32.60;;;16.67;;
72864;SDS011;61000;48.120;11.548;2023-02-12T04:21:10;35.65;;;17.98;;
72864;SDS011;61000;48.120;11.548;2023-02-12T04:23:45;28.15;;;17.73;;
72864;SDS011;61000;48.120;11.548;2023-02-12T04:26:17;31.63;;;17.02;;
72864;SDS011;61000;48.120;11.548;2023-02-12T04:28:51;30.13;;;18.77;;
72864;SDS011;61000;48.120;11.548;2023-02-12T04:31:29;28.45;;;17.08;;
72864;SDS011;61000;48.120;11.548;2023-02-12T04:34:04;33.05;;;17.65;;
72864;SDS011;61000;48.120;11.548;2023-02-12T04:36:37;31.90;;;18.77;;
72864;SDS011;61000;48.120;11.548;2023-02-12T04:39:08;29.55;;;17.33;;
72864;SDS011;61000;48.120;11.548;2023-02-12T04:41:40;30.15;;;16.27;;
72864;SDS011;61000;48.120;11.548;2023-02-12T04:44:14;30.30;;;16.90;;
72864;SDS011;61000;48.120;11.548;2023-02-12T04:46:42;28.48;;;16.42;;
72864;SDS011;61000;48.120;11.548;2023-02-12T04:49:11;28.20;;;17.08;;
72864;SDS011;61000;48.120;11.548;2023-02-12T04:51:40;31.55;;;17.08;;
72864;SDS011;61000;48.120;11.548;2023-02-12T04:54:07;29.23;;;16.27;;
72864;SDS011;61000;48.120;11.548;2023-02-12T04:56:34;25.77;;;17.02;;
72864;SDS011;61000;48.120;11.548;2023-02-12T04:59:01;26.02;;;16.27;;
72864;SDS011;61000;48.120;11.548;2023-02-12T05:01:28;25.17;;;16.80;;
72864;SDS011;61000;48.120;11.548;2023-02-12T05:03:56;24.25;;;15.45;;
72864;SDS011;61000;48.120;11.548;2023-02-12T05:06:24;28.58;;;15.68;;
72864;SDS011;61000;48.120;11.548;2023-02-12T05:08:51;24.10;;;15.85;;
72864;SDS011;61000;48.120;11.548;2023-02-12T05:11:18;28.58;;;16.10;;
72864;SDS011;61000;48.120;11.548;2023-02-12T05:13:47;26.17;;;16.42;;
72864;SDS011;61000;48.120;11.548;2023-02-12T05:16:15;31.38;;;16.92;;
72864;SDS011;61000;48.120;11.548;2023-02-12T05:18:42;28.88;;;16.38;;
72864;SDS011;61000;48.120;11.548;2023-02-12T05:21:09;34.00;;;17.35;;
72864;SDS011;61000;48.120;11.548;2023-02-12T05:23:38;27.90;;;16.40;;
72864;SDS011;61000;48.120;11.548;2023-02-12T05:26:06;26.83;;;16.55;;
72864;SDS011;61000;48.120;11.548;2023-02-12T05:28:36;28.10;;;17.13;;
72864;SDS011;61000;48.120;11.548;2023-02-12T05:31:03;26.25;;;16.45;;
72864;SDS011;61000;48.120;11.548;2023-02-12T05:33:31;28.55;;;16.25;;
72864;SDS011;61000;48.120;11.548;2023-02-12T05:36:02;31.15;;;17.00;;
72864;SDS011;61000;48.120;11.548;2023-02-12T05:38:29;28.67;;;17.63;;
72864;SDS011;61000;48.120;11.548;2023-02-12T05:41:01;31.17;;;16.95;;
72864;SDS011;61000;48.120;11.548;2023-02-12T05:43:28;27.50;;;16.50;;
72864;SDS011;61000;48.120;11.548;2023-02-12T05:45:57;30.33;;;16.67;;
72864;SDS011;61000;48.120;11.548;2023-02-12T05:48:24;30.27;;;18.83;;
72864;SDS011;61000;48.120;11.548;2023-02-12T05:50:51;34.13;;;18.40;;
72864;SDS011;61000;48.120;11.548;2023-02-12T05:53:18;29.27;;;17.50;;
72864;SDS011;61000;48.120;11.548;2023-02-12T05:55:45;32.00;;;17.80;;
72864;SDS011;61000;48.120;11.548;2023-02-12T05:58:14;29.40;;;17.67;;
72864;SDS011;61000;48.120;11.548;2023-02-12T06:00:41;33.78;;;18.23;;
72864;SDS011;61000;48.120;11.548;2023-02-12T06:03:08;30.50;;;18.13;;
72864;SDS011;61000;48.120;11.548;2023-02-12T06:05:35;31.35;;;17.13;;
72864;SDS011;61000;48.120;11.548;2023-02-12T06:08:02;37.65;;;20.58;;
72864;SDS011;61000;48.120;11.548;2023-02-12T06:10:29;35.25;;;20.52;;
72864;SDS011;61000;48.120;11.548;2023-02-12T06:12:56;32.53;;;19.80;;
72864;SDS011;61000;48.120;11.548;2023-02-12T06:15:24;37.53;;;20.08;;
72864;SDS011;61000;48.120;11.548;2023-02-12T06:17:51;38.30;;;20.52;;
72864;SDS011;61000;48.120;11.548;2023-02-12T06:20:18;40.25;;;23.00;;
72864;SDS011;61000;48.120;11.548;2023-02-12T06:22:45;44.28;;;22.23;;
72864;SDS011;61000;48.120;11.548;2023-02-12T06:25:11;41.00;;;21.70;;
72864;SDS011;61000;48.120;11.548;2023-02-12T06:27:38;43.10;;;20.80;;
72864;SDS011;61000;48.120;11.548;2023-02-12T06:30:06;40.03;;;21.73;;
72864;SDS011;61000;48.120;11.548;2023-02-12T06:32:35;41.97;;;21.33;;
72864;SDS011;61000;48.120;11.548;2023-02-12T06:35:02;42.28;;;21.30;;
72864;SDS011;61000;48.120;11.548;2023-02-12T06:37:29;37.65;;;21.00;;
72864;SDS011;61000;48.120;11.548;2023-02-12T06:39:56;46.72;;;23.77;;
72864;SDS011;61000;48.120;11.548;2023-02-12T06:42:23;37.05;;;21.17;;
72864;SDS011;61000;48.120;11.548;2023-02-12T06:44:50;36.63;;;19.52;;
72864;SDS011;61000;48.120;11.548;2023-02-12T06:47:17;28.85;;;16.33;;
72864;SDS011;61000;48.120;11.548;2023-02-12T06:49:45;31.67;;;17.50;;
72864;SDS011;61000;48.120;11.548;2023-02-12T06:52:12;30.05;;;17.25;;
72864;SDS011;61000;48.120;11.548;2023-02-12T06:54:39;35.15;;;18.25;;
72864;SDS011;61000;48.120;11.548;2023-02-12T06:57:06;37.47;;;18.70;;
72864;SDS011;61000;48.120;11.548;2023-02-12T06:59:34;33.92;;;18.60;;
72864;SDS011;61000;48.120;11.548;2023-02-12T07:02:00;38.88;;;22.13;;
72864;SDS011;61000;48.120;11.548;2023-02-12T07:04:27;38.80;;;20.60;;
72864;SDS011;61000;48.120;11.548;2023-02-12T07:06:55;39.55;;;22.20;;
72864;SDS011;61000;48.120;11.548;2023-02-12T07:09:22;40.35;;;22.27;;
72864;SDS011;61000;48.120;11.548;2023-02-12T07:11:49;39.67;;;21.10;;
72864;SDS011;61000;48.120;11.548;2023-02-12T07:14:16;45.80;;;23.58;;
72864;SDS011;61000;48.120;11.548;2023-02-12T07:16:43;48.47;;;23.23;;
72864;SDS011;61000;48.120;11.548;2023-02-12T07:19:10;39.53;;;23.00;;
72864;SDS011;61000;48.120;11.548;2023-02-12T07:21:38;42.17;;;22.45;;
72864;SDS011;61000;48.120;11.548;2023-02-12T07:24:08;43.85;;;21.88;;
72864;SDS011;61000;48.120;11.548;2023-02-12T07:26:36;48.38;;;23.63;;
72864;SDS011;61000;48.120;11.548;2023-02-12T07:29:03;48.80;;;23.88;;
72864;SDS011;61000;48.120;11.548;2023-02-12T07:31:30;47.78;;;22.55;;
72864;SDS011;61000;48.120;11.548;2023-02-12T07:33:57;49.58;;;23.73;;
72864;SDS011;61000;48.120;11.548;2023-02-12T07:36:26;44.47;;;21.38;;
72864;SDS011;61000;48.120;11.548;2023-02-12T07:38:56;46.45;;;20.48;;
72864;SDS011;61000;48.120;11.548;2023-02-12T07:41:28;38.45;;;19.98;;
72864;SDS011;61000;48.120;11.548;2023-02-12T07:43:57;39.60;;;20.33;;
72864;SDS011;61000;48.120;11.548;2023-02-12T07:46:25;38.72;;;20.38;;
72864;SDS011;61000;48.120;11.548;2023-02-12T07:48:54;38.00;;;19.75;;
72864;SDS011;61000;48.120;11.548;2023-02-12T07:51:22;34.65;;;18.52;;
72864;SDS011;61000;48.120;11.548;2023-02-12T07:53:50;30.33;;;17.55;;
72864;SDS011;61000;48.120;11.548;2023-02-12T07:56:17;27.77;;;16.63;;
72864;SDS011;61000;48.120;11.548;2023-02-12T07:58:48;30.17;;;16.83;;
72864;SDS011;61000;48.120;11.548;2023-02-12T08:01:16;26.23;;;15.35;;
72864;SDS011;61000;48.120;11.548;2023-02-12T08:03:44;26.70;;;15.48;;
72864;SDS011;61000;48.120;11.548;2023-02-12T08:06:12;32.45;;;17.65;;
72864;SDS011;61000;48.120;11.548;2023-02-12T08:08:42;28.00;;;15.68;;
72864;SDS011;61000;48.120;11.548;2023-02-12T08:11:09;33.00;;;16.92;;
72864;SDS011;61000;48.120;11.548;2023-02-12T08:13:37;31.67;;;18.63;;
72864;SDS011;61000;48.120;11.548;2023-02-12T08:16:07;35.78;;;18.38;;
72864;SDS011;61000;48.120;11.548;2023-02-12T08:18:35;35.58;;;18.58;;
72864;SDS011;61000;48.120;11.548;2023-02-12T08:21:02;37.58;;;20.23;;
72864;SDS011;61000;48.120;11.548;2023-02-12T08:23:30;39.97;;;21.42;;
72864;SDS011;61000;48.120;11.548;2023-02-12T08:26:04;42.35;;;21.30;;
72864;SDS011;61000;48.120;11.548;2023-02-12T08:28:32;45.10;;;20.77;;
72864;SDS011;61000;48.120;11.548;2023-02-12T08:30:59;36.08;;;20.08;;
72864;SDS011;61000;48.120;11.548;2023-02-12T08:33:28;43.15;;;19.83;;
72864;SDS011;61000;48.120;11.548;2023-02-12T08:36:04;39.10;;;20.45;;
72864;SDS011;61000;48.120;11.548;2023-02-12T08:38:33;43.40;;;19.45;;
72864;SDS011;61000;48.120;11.548;2023-02-12T08:41:01;31.67;;;18.45;;
72864;SDS011;61000;48.120;11.548;2023-02-12T08:43:29;37.55;;;18.73;;
72864;SDS011;61000;48.120;11.548;2023-02-12T08:46:04;37.92;;;19.45;;
72864;SDS011;61000;48.120;11.548;2023-02-12T08:48:34;47.05;;;22.05;;
72864;SDS011;61000;48.120;11.548;2023-02-12T08:51:02;47.03;;;22.67;;
72864;SDS011;61000;48.120;11.548;2023-02-12T08:53:30;45.28;;;22.83;;
72864;SDS011;61000;48.120;11.548;2023-02-12T08:55:57;42.40;;;21.52;;
72864;SDS011;61000;48.120;11.548;2023-02-12T08:58:24;42.08;;;21.35;;
72864;SDS011;61000;48.120;11.548;2023-02-12T09:00:51;50.88;;;22.42;;
72864;SDS011;61000;48.120;11.548;2023-02-12T09:03:18;42.58;;;22.38;;
72864;SDS011;61000;48.120;11.548;2023-02-12T09:05:47;38.72;;;20.55;;
72864;SDS011;61000;48.120;11.548;2023-02-12T09:08:13;39.05;;;20.40;;
72864;SDS011;61000;48.120;11.548;2023-02-12T09:10:41;38.65;;;19.85;;
72864;SDS011;61000;48.120;11.548;2023-02-12T09:13:09;34.80;;;19.38;;
72864;SDS011;61000;48.120;11.548;2023-02-12T09:15:37;36.08;;;20.05;;
72864;SDS011;61000;48.120;11.548;2023-02-12T09:18:04;37.38;;;20.13;;
72864;SDS011;61000;48.120;11.548;2023-02-12T09:20:32;37.83;;;20.52;;
72864;SDS011;61000;48.120;11.548;2023-02-12T09:23:00;38.72;;;22.42;;
72864;SDS011;61000;48.120;11.548;2023-02-12T09:25:27;38.22;;;20.58;;
72864;SDS011;61000;48.120;11.548;2023-02-12T09:27:54;41.08;;;22.02;;
72864;SDS011;61000;48.120;11.548;2023-02-12T09:30:21;41.42;;;20.63;;
72864;SDS011;61000;48.120;11.548;2023-02-12T09:32:48;42.90;;;20.80;;
72864;SDS011;61000;48.120;11.548;2023-02-12T09:35:14;43.45;;;21.48;;
72864;SDS011;61000;48.120;11.548;2023-02-12T09:37:42;36.05;;;19.73;;
72864;SDS011;61000;48.120;11.548;2023-02-12T09:40:15;38.53;;;21.00;;
72864;SDS011;61000;48.120;11.548;2023-02-12T09:42:55;33.85;;;18.98;;
72864;SDS011;61000;48.120;11.548;2023-02-12T09:45:31;38.88;;;20.45;;
72864;SDS011;61000;48.120;11.548;2023-02-12T09:48:04;32.75;;;19.17;;
72864;SDS011;61000;48.120;11.548;2023-02-12T09:50:42;31.88;;;17.92;;
72864;SDS011;61000;48.120;11.548;2023-02-12T09:53:13;28.15;;;15.95;;
72864;SDS011;61000;48.120;11.548;2023-02-12T09:55:44;30.85;;;17.40;;
72864;SDS011;61000;48.120;11.548;2023-02-12T09:58:12;15.38;;;8.75;;
72864;SDS011;61000;48.120;11.548;2023-02-12T10:00:41;14.98;;;7.70;;
72864;SDS011;61000;48.120;11.548;2023-02-12T10:03:11;5.57;;;3.88;;
72864;SDS011;61000;48.120;11.548;2023-02-12T10:05:40;3.40;;;2.58;;
72864;SDS011;61000;48.120;11.548;2023-02-12T10:08:18;2.58;;;1.98;;
72864;SDS011;61000;48.120;11.548;2023-02-12T10:11:18;4.55;;;3.25;;
72864;SDS011;61000;48.120;11.548;2023-02-12T10:13:55;8.80;;;4.20;;
72864;SDS011;61000;48.120;11.548;2023-02-12T10:16:35;8.18;;;3.70;;
72864;SDS011;61000;48.120;11.548;2023-02-12T10:19:12;5.10;;;4.32;;
72864;SDS011;61000;48.120;11.548;2023-02-12T10:21:51;7.50;;;4.45;;
72864;SDS011;61000;48.120;11.548;2023-02-12T10:24:32;9.82;;;3.85;;
72864;SDS011;61000;48.120;11.548;2023-02-12T10:27:14;4.38;;;3.28;;
72864;SDS011;61000;48.120;11.548;2023-02-12T10:29:44;5.20;;;3.30;;
72864;SDS011;61000;48.120;11.548;2023-02-12T10:32:12;5.13;;;3.72;;
72864;SDS011;61000;48.120;11.548;2023-02-12T10:34:47;7.55;;;3.50;;
72864;SDS011;61000;48.120;11.548;2023-02-12T10:37:20;29.15;;;5.40;;
72864;SDS011;61000;48.120;11.548;2023-02-12T10:39:53;5.22;;;3.92;;
72864;SDS011;61000;48.120;11.548;2023-02-12T10:42:32;7.03;;;4.00;;
72864;SDS011;61000;48.120;11.548;2023-02-12T10:45:03;6.18;;;3.70;;
72864;SDS011;61000;48.120;11.548;2023-02-12T10:47:31;5.10;;;3.30;;
72864;SDS011;61000;48.120;11.548;2023-02-12T10:49:59;7.78;;;3.40;;
72864;SDS011;61000;48.120;11.548;2023-02-12T10:52:30;5.05;;;3.58;;
72864;SDS011;61000;48.120;11.548;2023-02-12T10:55:02;10.98;;;4.13;;
72864;SDS011;61000;48.120;11.548;2023-02-12T10:57:54;13.25;;;4.57;;
72864;SDS011;61000;48.120;11.548;2023-02-12T11:00:23;6.45;;;3.85;;
72864;SDS011;61000;48.120;11.548;2023-02-12T11:03:17;7.25;;;3.45;;
72864;SDS011;61000;48.120;11.548;2023-02-12T11:05:46;5.38;;;4.10;;
72864;SDS011;61000;48.120;11.548;2023-02-12T11:08:25;6.90;;;3.72;;
72864;SDS011;61000;48.120;11.548;2023-02-12T11:11:01;12.35;;;4.30;;
72864;SDS011;61000;48.120;11.548;2023-02-12T11:13:32;6.70;;;4.70;;
72864;SDS011;61000;48.120;11.548;2023-02-12T11:16:00;7.63;;;4.55;;
72864;SDS011;61000;48.120;11.548;2023-02-12T11:18:28;7.78;;;5.55;;
72864;SDS011;61000;48.120;11.548;2023-02-12T11:20:57;7.22;;;4.50;;
72864;SDS011;61000;48.120;11.548;2023-02-12T11:23:27;6.85;;;4.70;;
72864;SDS011;61000;48.120;11.548;2023-02-12T11:25:57;9.60;;;5.75;;
72864;SDS011;61000;48.120;11.548;2023-02-12T11:28:26;10.23;;;5.47;;
72864;SDS011;61000;48.120;11.548;2023-02-12T11:30:56;6.43;;;4.25;;
72864;SDS011;61000;48.120;11.548;2023-02-12T11:33:28;8.23;;;5.05;;
72864;SDS011;61000;48.120;11.548;2023-02-12T11:35:57;6.13;;;3.95;;
72864;SDS011;61000;48.120;11.548;2023-02-12T11:38:27;5.20;;;4.07;;
72864;SDS011;61000;48.120;11.548;2023-02-12T11:41:01;6.95;;;4.20;;
72864;SDS011;61000;48.120;11.548;2023-02-12T11:43:33;5.13;;;3.70;;
72864;SDS011;61000;48.120;11.548;2023-02-12T11:46:05;2.95;;;2.20;;
72864;SDS011;61000;48.120;11.548;2023-02-12T11:48:34;7.10;;;2.45;;
72864;SDS011;61000;48.120;11.548;2023-02-12T11:51:04;3.58;;;2.20;;
72864;SDS011;61000;48.120;11.548;2023-02-12T11:53:34;2.70;;;2.10;;
72864;SDS011;61000;48.120;11.548;2023-02-12T11:56:05;5.72;;;2.80;;
72864;SDS011;61000;48.120;11.548;2023-02-12T11:58:35;4.45;;;2.58;;
72864;SDS011;61000;48.120;11.548;2023-02-12T12:01:06;8.00;;;2.67;;
72864;SDS011;61000;48.120;11.548;2023-02-12T12:03:39;3.47;;;1.70;;
72864;SDS011;61000;48.120;11.548;2023-02-12T12:06:20;4.78;;;2.33;;
72864;SDS011;61000;48.120;11.548;2023-02-12T12:08:52;3.38;;;2.63;;
72864;SDS011;61000;48.120;11.548;2023-02-12T12:11:24;5.93;;;2.67;;
72864;SDS011;61000;48.120;11.548;2023-02-12T12:13:57;4.55;;;2.63;;
72864;SDS011;61000;48.120;11.548;2023-02-12T12:16:30;10.30;;;3.10;;
72864;SDS011;61000;48.120;11.548;2023-02-12T12:19:20;3.25;;;2.42;;
72864;SDS011;61000;48.120;11.548;2023-02-12T12:22:15;2.75;;;2.40;;
72864;SDS011;61000;48.120;11.548;2023-02-12T12:24:50;4.03;;;2.63;;
72864;SDS011;61000;48.120;11.548;2023-02-12T12:27:23;5.95;;;2.97;;
72864;SDS011;61000;48.120;11.548;2023-02-12T12:30:17;6.45;;;3.67;;
72864;SDS011;61000;48.120;11.548;2023-02-12T12:32:49;5.22;;;2.85;;
72864;SDS011;61000;48.120;11.548;2023-02-12T12:35:20;3.13;;;2.40;;
72864;SDS011;61000;48.120;11.548;2023-02-12T12:37:56;4.90;;;2.70;;
72864;SDS011;61000;48.120;11.548;2023-02-12T12:40:33;4.57;;;2.40;;
72864;SDS011;61000;48.120;11.548;2023-02-12T12:43:21;3.95;;;2.30;;
72864;SDS011;61000;48.120;11.548;2023-02-12T12:55:07;6.85;;;3.25;;
72864;SDS011;61000;48.120;11.548;2023-02-12T12:57:50;3.40;;;2.97;;
72864;SDS011;61000;48.120;11.548;2023-02-12T13:03:31;3.45;;;2.72;;
72864;SDS011;61000;48.120;11.548;2023-02-12T13:06:17;2.85;;;2.20;;
72864;SDS011;61000;48.120;11.548;2023-02-12T13:09:15;6.38;;;3.80;;
72864;SDS011;61000;48.120;11.548;2023-02-12T13:11:55;5.75;;;3.45;;
72864;SDS011;61000;48.120;11.548;2023-02-12T13:14:39;4.55;;;3.38;;
72864;SDS011;61000;48.120;11.548;2023-02-12T13:17:15;6.30;;;3.78;;
72864;SDS011;61000;48.120;11.548;2023-02-12T13:19:54;12.30;;;7.78;;
72864;SDS011;61000;48.120;11.548;2023-02-12T13:22:30;11.20;;;7.25;;
72864;SDS011;61000;48.120;11.548;2023-02-12T13:25:04;11.15;;;5.75;;
72864;SDS011;61000;48.120;11.548;2023-02-12T13:27:40;12.15;;;5.47;;
72864;SDS011;61000;48.120;11.548;2023-02-12T13:30:16;7.28;;;5.32;;
72864;SDS011;61000;48.120;11.548;2023-02-12T13:32:46;6.93;;;4.32;;
72864;SDS011;61000;48.120;11.548;2023-02-12T13:35:21;5.68;;;4.35;;
72864;SDS011;61000;48.120;11.548;2023-02-12T13:37:52;6.75;;;4.40;;
72864;SDS011;61000;48.120;11.548;2023-02-12T13:40:20;6.40;;;4.68;;
72864;SDS011;61000;48.120;11.548;2023-02-12T13:42:50;6.45;;;4.40;;
72864;SDS011;61000;48.120;11.548;2023-02-12T13:45:27;10.48;;;5.47;;
72864;SDS011;61000;48.120;11.548;2023-02-12T13:48:21;7.90;;;4.93;;
72864;SDS011;61000;48.120;11.548;2023-02-12T13:51:00;7.45;;;5.18;;
72864;SDS011;61000;48.120;11.548;2023-02-12T13:53:39;7.93;;;5.10;;
72864;SDS011;61000;48.120;11.548;2023-02-12T13:56:20;8.52;;;5.40;;
72864;SDS011;61000;48.120;11.548;2023-02-12T13:58:54;7.25;;;5.05;;
72864;SDS011;61000;48.120;11.548;2023-02-12T14:01:37;7.57;;;5.78;;
72864;SDS011;61000;48.120;11.548;2023-02-12T14:04:14;8.30;;;4.85;;
72864;SDS011;61000;48.120;11.548;2023-02-12T14:06:52;9.52;;;5.50;;
72864;SDS011;61000;48.120;11.548;2023-02-12T14:09:26;10.20;;;5.55;;
72864;SDS011;61000;48.120;11.548;2023-02-12T14:11:56;9.90;;;5.75;;
72864;SDS011;61000;48.120;11.548;2023-02-12T14:14:25;8.68;;;6.15;;
72864;SDS011;61000;48.120;11.548;2023-02-12T14:16:55;8.00;;;5.55;;
72864;SDS011;61000;48.120;11.548;2023-02-12T14:19:38;8.05;;;6.00;;
72864;SDS011;61000;48.120;11.548;2023-02-12T14:25:28;10.18;;;6.38;;
72864;SDS011;61000;48.120;11.548;2023-02-12T14:28:05;10.35;;;6.43;;
72864;SDS011;61000;48.120;11.548;2023-02-12T14:30:44;10.27;;;5.47;;
72864;SDS011;61000;48.120;11.548;2023-02-12T14:33:31;9.02;;;5.72;;
72864;SDS011;61000;48.120;11.548;2023-02-12T14:36:18;11.90;;;7.30;;
72864;SDS011;61000;48.120;11.548;2023-02-12T14:39:04;11.93;;;6.45;;
72864;SDS011;61000;48.120;11.548;2023-02-12T14:41:53;9.70;;;5.93;;
72864;SDS011;61000;48.120;11.548;2023-02-12T14:44:36;11.63;;;6.28;;
72864;SDS011;61000;48.120;11.548;2023-02-12T14:47:04;10.93;;;6.50;;
72864;SDS011;61000;48.120;11.548;2023-02-12T14:49:43;10.13;;;5.78;;
72864;SDS011;61000;48.120;11.548;2023-02-12T14:52:13;8.93;;;6.28;;
72864;SDS011;61000;48.120;11.548;2023-02-12T14:54:44;9.23;;;6.05;;
72864;SDS011;61000;48.120;11.548;2023-02-12T14:57:19;10.32;;;6.60;;
72864;SDS011;61000;48.120;11.548;2023-02-12T14:59:51;10.52;;;6.70;;